Terminal Aerodrome Forecast
Issued by NWS

Home | Current Version | Previous Version | Text Only | Print | Product List | Glossary On
Versions: 1 2 3 4 5 6 7 8 9 10 11 12 13 14 15 16 17 18 19 20 21 22 23 24 25 26 27 28
389
FTUS43 KLOT 240530
TAFMDW
TAF
KMDW 240530Z 2406/2506 28012G17KT 6SM -RA BKN015 OVC035
     FM240800 29012G17KT 5SM -RA SCT010 OVC018
     FM241400 30016G25KT 4SM RA SCT008 OVC010
     FM241900 31016G27KT 6SM -SHRA SCT012 OVC020
     FM250100 29014G23KT P6SM SCT025 BKN035=

USA.gov is the U.S. government's official web portal to all federal, state and local government web resources and services.